sensor_id;sensor_type;location;lat;lon;timestamp;P1;durP1;ratioP1;P2;durP2;ratioP2
64667;SDS011;51077;42.716;23.344;2023-01-15T00:01:21;20.70;;;11.33;;
64667;SDS011;51077;42.716;23.344;2023-01-15T00:03:51;18.63;;;11.18;;
64667;SDS011;51077;42.716;23.344;2023-01-15T00:06:18;17.67;;;11.40;;
64667;SDS011;51077;42.716;23.344;2023-01-15T00:08:44;19.65;;;11.75;;
64667;SDS011;51077;42.716;23.344;2023-01-15T00:11:10;15.47;;;10.23;;
64667;SDS011;51077;42.716;23.344;2023-01-15T00:13:36;18.50;;;11.27;;
64667;SDS011;51077;42.716;23.344;2023-01-15T00:16:02;20.03;;;10.93;;
64667;SDS011;51077;42.716;23.344;2023-01-15T00:18:29;18.80;;;10.65;;
64667;SDS011;51077;42.716;23.344;2023-01-15T00:21:01;17.10;;;10.67;;
64667;SDS011;51077;42.716;23.344;2023-01-15T00:23:29;17.75;;;10.30;;
64667;SDS011;51077;42.716;23.344;2023-01-15T00:28:58;17.20;;;10.82;;
64667;SDS011;51077;42.716;23.344;2023-01-15T00:31:24;18.70;;;11.23;;
64667;SDS011;51077;42.716;23.344;2023-01-15T00:33:49;19.70;;;10.93;;
64667;SDS011;51077;42.716;23.344;2023-01-15T00:36:15;19.97;;;11.67;;
64667;SDS011;51077;42.716;23.344;2023-01-15T00:38:40;16.13;;;11.03;;
64667;SDS011;51077;42.716;23.344;2023-01-15T00:41:05;17.63;;;11.03;;
64667;SDS011;51077;42.716;23.344;2023-01-15T00:43:31;17.83;;;11.00;;
64667;SDS011;51077;42.716;23.344;2023-01-15T00:45:56;19.20;;;10.67;;
64667;SDS011;51077;42.716;23.344;2023-01-15T00:48:22;19.40;;;11.47;;
64667;SDS011;51077;42.716;23.344;2023-01-15T00:50:47;18.03;;;10.50;;
64667;SDS011;51077;42.716;23.344;2023-01-15T00:53:12;17.27;;;11.13;;
64667;SDS011;51077;42.716;23.344;2023-01-15T00:55:38;14.60;;;9.53;;
64667;SDS011;51077;42.716;23.344;2023-01-15T00:58:03;17.37;;;10.30;;
64667;SDS011;51077;42.716;23.344;2023-01-15T01:00:29;18.67;;;11.20;;
64667;SDS011;51077;42.716;23.344;2023-01-15T01:02:55;17.77;;;10.20;;
64667;SDS011;51077;42.716;23.344;2023-01-15T01:05:21;18.00;;;11.02;;
64667;SDS011;51077;42.716;23.344;2023-01-15T01:07:46;18.87;;;11.70;;
64667;SDS011;51077;42.716;23.344;2023-01-15T01:10:12;18.67;;;11.40;;
64667;SDS011;51077;42.716;23.344;2023-01-15T01:12:37;18.30;;;10.43;;
64667;SDS011;51077;42.716;23.344;2023-01-15T01:15:03;17.83;;;11.03;;
64667;SDS011;51077;42.716;23.344;2023-01-15T01:17:28;17.70;;;11.10;;
64667;SDS011;51077;42.716;23.344;2023-01-15T01:19:54;16.77;;;10.57;;
64667;SDS011;51077;42.716;23.344;2023-01-15T01:22:19;17.70;;;10.70;;
64667;SDS011;51077;42.716;23.344;2023-01-15T01:24:45;15.40;;;10.30;;
64667;SDS011;51077;42.716;23.344;2023-01-15T01:27:10;19.57;;;11.33;;
64667;SDS011;51077;42.716;23.344;2023-01-15T01:29:36;17.10;;;10.70;;
64667;SDS011;51077;42.716;23.344;2023-01-15T01:32:01;17.37;;;10.47;;
64667;SDS011;51077;42.716;23.344;2023-01-15T01:34:26;17.87;;;10.80;;
64667;SDS011;51077;42.716;23.344;2023-01-15T01:36:52;18.23;;;10.40;;
64667;SDS011;51077;42.716;23.344;2023-01-15T01:39:18;17.23;;;10.93;;
64667;SDS011;51077;42.716;23.344;2023-01-15T01:41:44;17.92;;;10.57;;
64667;SDS011;51077;42.716;23.344;2023-01-15T01:46:59;17.85;;;10.50;;
64667;SDS011;51077;42.716;23.344;2023-01-15T01:49:31;17.75;;;11.00;;
64667;SDS011;51077;42.716;23.344;2023-01-15T01:51:58;16.88;;;10.80;;
64667;SDS011;51077;42.716;23.344;2023-01-15T01:54:28;16.45;;;10.30;;
64667;SDS011;51077;42.716;23.344;2023-01-15T01:56:56;18.52;;;10.90;;
64667;SDS011;51077;42.716;23.344;2023-01-15T01:59:22;18.85;;;10.93;;
64667;SDS011;51077;42.716;23.344;2023-01-15T02:01:49;18.52;;;10.73;;
64667;SDS011;51077;42.716;23.344;2023-01-15T02:04:14;15.87;;;10.07;;
64667;SDS011;51077;42.716;23.344;2023-01-15T02:06:44;16.88;;;10.60;;
64667;SDS011;51077;42.716;23.344;2023-01-15T02:09:10;18.35;;;10.63;;
64667;SDS011;51077;42.716;23.344;2023-01-15T02:11:35;16.52;;;10.30;;
64667;SDS011;51077;42.716;23.344;2023-01-15T02:16:42;14.93;;;9.73;;
64667;SDS011;51077;42.716;23.344;2023-01-15T02:27:32;15.70;;;10.23;;
64667;SDS011;51077;42.716;23.344;2023-01-15T02:32:43;15.48;;;9.65;;
64667;SDS011;51077;42.716;23.344;2023-01-15T02:35:18;16.70;;;10.57;;
64667;SDS011;51077;42.716;23.344;2023-01-15T02:37:53;15.07;;;10.15;;
64667;SDS011;51077;42.716;23.344;2023-01-15T02:40:22;17.95;;;10.45;;
64667;SDS011;51077;42.716;23.344;2023-01-15T02:42:50;14.80;;;9.70;;
64667;SDS011;51077;42.716;23.344;2023-01-15T02:45:24;16.35;;;10.68;;
64667;SDS011;51077;42.716;23.344;2023-01-15T02:48:02;18.35;;;11.45;;
64667;SDS011;51077;42.716;23.344;2023-01-15T02:50:34;17.50;;;10.25;;
64667;SDS011;51077;42.716;23.344;2023-01-15T02:53:04;14.63;;;9.98;;
64667;SDS011;51077;42.716;23.344;2023-01-15T02:55:36;16.15;;;10.70;;
64667;SDS011;51077;42.716;23.344;2023-01-15T02:58:08;15.73;;;9.98;;
64667;SDS011;51077;42.716;23.344;2023-01-15T03:00:38;16.83;;;10.43;;
64667;SDS011;51077;42.716;23.344;2023-01-15T03:05:51;15.32;;;9.00;;
64667;SDS011;51077;42.716;23.344;2023-01-15T03:08:21;18.65;;;10.25;;
64667;SDS011;51077;42.716;23.344;2023-01-15T03:10:52;15.23;;;9.23;;
64667;SDS011;51077;42.716;23.344;2023-01-15T03:21:46;15.43;;;9.98;;
64667;SDS011;51077;42.716;23.344;2023-01-15T03:24:32;16.50;;;10.27;;
64667;SDS011;51077;42.716;23.344;2023-01-15T03:27:08;17.83;;;10.93;;
64667;SDS011;51077;42.716;23.344;2023-01-15T03:29:39;15.23;;;9.93;;
64667;SDS011;51077;42.716;23.344;2023-01-15T03:32:07;18.35;;;10.25;;
64667;SDS011;51077;42.716;23.344;2023-01-15T03:34:37;15.98;;;9.93;;
64667;SDS011;51077;42.716;23.344;2023-01-15T03:37:06;16.98;;;10.60;;
64667;SDS011;51077;42.716;23.344;2023-01-15T03:39:32;15.60;;;9.68;;
64667;SDS011;51077;42.716;23.344;2023-01-15T03:44:55;16.48;;;10.18;;
64667;SDS011;51077;42.716;23.344;2023-01-15T03:50:41;15.43;;;9.43;;
64667;SDS011;51077;42.716;23.344;2023-01-15T03:53:14;15.57;;;9.70;;
64667;SDS011;51077;42.716;23.344;2023-01-15T04:01:06;14.18;;;9.27;;
64667;SDS011;51077;42.716;23.344;2023-01-15T04:03:37;16.52;;;10.30;;
64667;SDS011;51077;42.716;23.344;2023-01-15T04:06:03;16.00;;;9.57;;
64667;SDS011;51077;42.716;23.344;2023-01-15T04:08:31;15.15;;;9.00;;
64667;SDS011;51077;42.716;23.344;2023-01-15T04:11:00;15.85;;;9.93;;
64667;SDS011;51077;42.716;23.344;2023-01-15T04:13:26;14.25;;;8.88;;
64667;SDS011;51077;42.716;23.344;2023-01-15T04:15:55;16.55;;;9.43;;
64667;SDS011;51077;42.716;23.344;2023-01-15T04:18:20;15.90;;;9.63;;
64667;SDS011;51077;42.716;23.344;2023-01-15T04:20:46;15.63;;;10.33;;
64667;SDS011;51077;42.716;23.344;2023-01-15T04:23:12;15.43;;;8.75;;
64667;SDS011;51077;42.716;23.344;2023-01-15T04:25:38;15.40;;;9.48;;
64667;SDS011;51077;42.716;23.344;2023-01-15T04:28:05;15.38;;;9.07;;
64667;SDS011;51077;42.716;23.344;2023-01-15T04:30:30;15.30;;;9.05;;
64667;SDS011;51077;42.716;23.344;2023-01-15T04:32:56;13.83;;;8.97;;
64667;SDS011;51077;42.716;23.344;2023-01-15T04:35:22;13.70;;;8.82;;
64667;SDS011;51077;42.716;23.344;2023-01-15T04:37:47;13.77;;;9.23;;
64667;SDS011;51077;42.716;23.344;2023-01-15T04:40:13;13.80;;;8.80;;
64667;SDS011;51077;42.716;23.344;2023-01-15T04:42:58;14.05;;;8.77;;
64667;SDS011;51077;42.716;23.344;2023-01-15T04:45:42;13.75;;;8.90;;
64667;SDS011;51077;42.716;23.344;2023-01-15T04:48:09;14.13;;;8.77;;
64667;SDS011;51077;42.716;23.344;2023-01-15T04:50:36;13.30;;;8.32;;
64667;SDS011;51077;42.716;23.344;2023-01-15T04:53:02;15.03;;;8.73;;
64667;SDS011;51077;42.716;23.344;2023-01-15T04:55:28;13.37;;;8.00;;
64667;SDS011;51077;42.716;23.344;2023-01-15T04:57:54;12.15;;;8.00;;
64667;SDS011;51077;42.716;23.344;2023-01-15T05:00:19;12.57;;;8.07;;
64667;SDS011;51077;42.716;23.344;2023-01-15T05:02:45;13.98;;;8.73;;
64667;SDS011;51077;42.716;23.344;2023-01-15T05:05:10;14.60;;;8.00;;
64667;SDS011;51077;42.716;23.344;2023-01-15T05:07:36;12.53;;;7.53;;
64667;SDS011;51077;42.716;23.344;2023-01-15T05:10:01;13.00;;;7.63;;
64667;SDS011;51077;42.716;23.344;2023-01-15T05:12:27;12.37;;;8.20;;
64667;SDS011;51077;42.716;23.344;2023-01-15T05:14:52;13.63;;;8.53;;
64667;SDS011;51077;42.716;23.344;2023-01-15T05:17:17;12.20;;;8.07;;
64667;SDS011;51077;42.716;23.344;2023-01-15T05:19:43;12.10;;;7.47;;
64667;SDS011;51077;42.716;23.344;2023-01-15T05:22:08;10.73;;;7.03;;
64667;SDS011;51077;42.716;23.344;2023-01-15T05:24:34;10.10;;;6.03;;
64667;SDS011;51077;42.716;23.344;2023-01-15T05:27:00;10.20;;;6.40;;
64667;SDS011;51077;42.716;23.344;2023-01-15T05:29:26;13.70;;;7.13;;
64667;SDS011;51077;42.716;23.344;2023-01-15T05:31:52;9.30;;;5.77;;
64667;SDS011;51077;42.716;23.344;2023-01-15T05:34:17;9.57;;;5.63;;
64667;SDS011;51077;42.716;23.344;2023-01-15T05:36:42;11.10;;;6.20;;
64667;SDS011;51077;42.716;23.344;2023-01-15T05:39:08;9.80;;;6.37;;
64667;SDS011;51077;42.716;23.344;2023-01-15T05:41:33;11.13;;;7.23;;
64667;SDS011;51077;42.716;23.344;2023-01-15T05:44:15;10.02;;;6.20;;
64667;SDS011;51077;42.716;23.344;2023-01-15T05:46:43;9.15;;;5.80;;
64667;SDS011;51077;42.716;23.344;2023-01-15T05:49:11;9.25;;;6.22;;
64667;SDS011;51077;42.716;23.344;2023-01-15T05:51:42;12.68;;;6.95;;
64667;SDS011;51077;42.716;23.344;2023-01-15T05:54:10;10.90;;;6.38;;
64667;SDS011;51077;42.716;23.344;2023-01-15T05:56:37;10.40;;;6.40;;
64667;SDS011;51077;42.716;23.344;2023-01-15T05:59:04;12.00;;;6.57;;
64667;SDS011;51077;42.716;23.344;2023-01-15T06:01:30;10.07;;;6.68;;
64667;SDS011;51077;42.716;23.344;2023-01-15T06:03:57;11.20;;;6.83;;
64667;SDS011;51077;42.716;23.344;2023-01-15T06:06:23;11.38;;;6.85;;
64667;SDS011;51077;42.716;23.344;2023-01-15T06:08:49;9.03;;;5.87;;
64667;SDS011;51077;42.716;23.344;2023-01-15T06:11:14;12.20;;;6.87;;
64667;SDS011;51077;42.716;23.344;2023-01-15T06:13:40;10.70;;;6.67;;
64667;SDS011;51077;42.716;23.344;2023-01-15T06:16:05;10.87;;;6.63;;
64667;SDS011;51077;42.716;23.344;2023-01-15T06:18:31;9.88;;;6.35;;
64667;SDS011;51077;42.716;23.344;2023-01-15T06:21:03;12.07;;;7.82;;
64667;SDS011;51077;42.716;23.344;2023-01-15T06:23:30;10.80;;;6.93;;
64667;SDS011;51077;42.716;23.344;2023-01-15T06:25:59;10.15;;;6.80;;
64667;SDS011;51077;42.716;23.344;2023-01-15T06:28:25;11.68;;;7.20;;
64667;SDS011;51077;42.716;23.344;2023-01-15T06:30:51;12.60;;;7.57;;
64667;SDS011;51077;42.716;23.344;2023-01-15T06:33:16;10.97;;;7.53;;
64667;SDS011;51077;42.716;23.344;2023-01-15T06:35:42;13.20;;;8.03;;
64667;SDS011;51077;42.716;23.344;2023-01-15T06:38:07;13.60;;;8.07;;
64667;SDS011;51077;42.716;23.344;2023-01-15T06:40:33;13.73;;;8.33;;
64667;SDS011;51077;42.716;23.344;2023-01-15T06:42:58;14.17;;;8.90;;
64667;SDS011;51077;42.716;23.344;2023-01-15T06:45:42;15.48;;;8.60;;
64667;SDS011;51077;42.716;23.344;2023-01-15T06:48:26;14.52;;;8.55;;
64667;SDS011;51077;42.716;23.344;2023-01-15T06:50:52;15.97;;;8.13;;
64667;SDS011;51077;42.716;23.344;2023-01-15T06:53:19;13.95;;;8.48;;
64667;SDS011;51077;42.716;23.344;2023-01-15T06:55:45;14.77;;;10.13;;
64667;SDS011;51077;42.716;23.344;2023-01-15T06:58:10;14.90;;;9.13;;
64667;SDS011;51077;42.716;23.344;2023-01-15T07:00:36;14.90;;;9.20;;
64667;SDS011;51077;42.716;23.344;2023-01-15T07:03:01;16.47;;;10.07;;
64667;SDS011;51077;42.716;23.344;2023-01-15T07:05:28;14.40;;;9.32;;
64667;SDS011;51077;42.716;23.344;2023-01-15T07:07:53;16.83;;;9.83;;
64667;SDS011;51077;42.716;23.344;2023-01-15T07:10:19;14.83;;;9.40;;
64667;SDS011;51077;42.716;23.344;2023-01-15T07:12:44;12.23;;;8.50;;
64667;SDS011;51077;42.716;23.344;2023-01-15T07:15:10;16.67;;;10.40;;
64667;SDS011;51077;42.716;23.344;2023-01-15T07:17:36;16.65;;;10.48;;
64667;SDS011;51077;42.716;23.344;2023-01-15T07:20:01;17.80;;;10.83;;
64667;SDS011;51077;42.716;23.344;2023-01-15T07:22:27;21.97;;;11.43;;
64667;SDS011;51077;42.716;23.344;2023-01-15T07:24:52;17.97;;;10.57;;
64667;SDS011;51077;42.716;23.344;2023-01-15T07:27:17;17.43;;;11.27;;
64667;SDS011;51077;42.716;23.344;2023-01-15T07:29:43;20.87;;;11.23;;
64667;SDS011;51077;42.716;23.344;2023-01-15T07:32:09;18.27;;;10.83;;
64667;SDS011;51077;42.716;23.344;2023-01-15T07:34:35;18.80;;;10.80;;
64667;SDS011;51077;42.716;23.344;2023-01-15T07:37:00;18.30;;;11.10;;
64667;SDS011;51077;42.716;23.344;2023-01-15T07:39:26;16.23;;;10.83;;
64667;SDS011;51077;42.716;23.344;2023-01-15T07:41:52;20.75;;;12.05;;
64667;SDS011;51077;42.716;23.344;2023-01-15T07:44:36;16.85;;;11.13;;
64667;SDS011;51077;42.716;23.344;2023-01-15T07:47:21;16.95;;;10.52;;
64667;SDS011;51077;42.716;23.344;2023-01-15T07:50:08;19.95;;;11.80;;
64667;SDS011;51077;42.716;23.344;2023-01-15T07:52:42;20.77;;;11.73;;
64667;SDS011;51077;42.716;23.344;2023-01-15T07:55:08;18.73;;;11.23;;
64667;SDS011;51077;42.716;23.344;2023-01-15T07:57:36;20.20;;;11.68;;
64667;SDS011;51077;42.716;23.344;2023-01-15T08:00:02;18.27;;;10.70;;
64667;SDS011;51077;42.716;23.344;2023-01-15T08:02:32;19.88;;;11.77;;
64667;SDS011;51077;42.716;23.344;2023-01-15T08:04:57;19.87;;;11.73;;
64667;SDS011;51077;42.716;23.344;2023-01-15T08:07:22;17.97;;;11.17;;
64667;SDS011;51077;42.716;23.344;2023-01-15T08:09:48;17.45;;;11.48;;
64667;SDS011;51077;42.716;23.344;2023-01-15T08:12:14;16.77;;;10.97;;
64667;SDS011;51077;42.716;23.344;2023-01-15T08:14:58;18.52;;;10.93;;
64667;SDS011;51077;42.716;23.344;2023-01-15T08:17:43;20.13;;;11.77;;
64667;SDS011;51077;42.716;23.344;2023-01-15T08:22:40;17.85;;;10.73;;
64667;SDS011;51077;42.716;23.344;2023-01-15T08:25:06;18.73;;;12.33;;
64667;SDS011;51077;42.716;23.344;2023-01-15T08:27:33;17.63;;;11.25;;
64667;SDS011;51077;42.716;23.344;2023-01-15T08:29:59;16.53;;;11.43;;
64667;SDS011;51077;42.716;23.344;2023-01-15T08:32:24;18.93;;;11.30;;
64667;SDS011;51077;42.716;23.344;2023-01-15T08:34:50;16.13;;;10.53;;
64667;SDS011;51077;42.716;23.344;2023-01-15T08:37:16;16.15;;;11.45;;
64667;SDS011;51077;42.716;23.344;2023-01-15T08:39:41;14.67;;;11.07;;
64667;SDS011;51077;42.716;23.344;2023-01-15T08:42:06;18.57;;;12.40;;
64667;SDS011;51077;42.716;23.344;2023-01-15T08:44:32;16.67;;;11.73;;
64667;SDS011;51077;42.716;23.344;2023-01-15T08:46:58;17.93;;;11.60;;
64667;SDS011;51077;42.716;23.344;2023-01-15T08:49:23;17.03;;;11.50;;
64667;SDS011;51077;42.716;23.344;2023-01-15T08:51:48;15.53;;;10.90;;
64667;SDS011;51077;42.716;23.344;2023-01-15T08:54:16;17.50;;;12.10;;
64667;SDS011;51077;42.716;23.344;2023-01-15T08:56:43;17.83;;;11.45;;
64667;SDS011;51077;42.716;23.344;2023-01-15T08:59:09;20.33;;;12.73;;
64667;SDS011;51077;42.716;23.344;2023-01-15T09:01:34;18.00;;;12.17;;
64667;SDS011;51077;42.716;23.344;2023-01-15T09:04:00;21.20;;;13.33;;
64667;SDS011;51077;42.716;23.344;2023-01-15T09:06:25;19.77;;;12.93;;
64667;SDS011;51077;42.716;23.344;2023-01-15T09:08:51;17.53;;;12.57;;
64667;SDS011;51077;42.716;23.344;2023-01-15T09:11:17;19.27;;;13.23;;
64667;SDS011;51077;42.716;23.344;2023-01-15T09:13:42;19.73;;;12.90;;
64667;SDS011;51077;42.716;23.344;2023-01-15T09:16:08;18.37;;;12.27;;
64667;SDS011;51077;42.716;23.344;2023-01-15T09:18:35;17.17;;;12.17;;
64667;SDS011;51077;42.716;23.344;2023-01-15T09:21:01;17.77;;;12.25;;
64667;SDS011;51077;42.716;23.344;2023-01-15T09:23:27;17.95;;;12.32;;
64667;SDS011;51077;42.716;23.344;2023-01-15T09:25:54;19.92;;;12.48;;
64667;SDS011;51077;42.716;23.344;2023-01-15T09:28:22;19.33;;;12.70;;
64667;SDS011;51077;42.716;23.344;2023-01-15T09:30:47;19.70;;;12.47;;
64667;SDS011;51077;42.716;23.344;2023-01-15T09:33:13;20.13;;;12.40;;
64667;SDS011;51077;42.716;23.344;2023-01-15T09:35:39;20.37;;;13.30;;
64667;SDS011;51077;42.716;23.344;2023-01-15T09:38:05;31.05;;;22.35;;
64667;SDS011;51077;42.716;23.344;2023-01-15T09:40:52;29.33;;;23.67;;
64667;SDS011;51077;42.716;23.344;2023-01-15T09:48:44;43.42;;;38.92;;
64667;SDS011;51077;42.716;23.344;2023-01-15T09:54:13;29.85;;;26.65;;
64667;SDS011;51077;42.716;23.344;2023-01-15T09:56:43;30.27;;;26.25;;
64667;SDS011;51077;42.716;23.344;2023-01-15T10:01:57;35.75;;;31.15;;
64667;SDS011;51077;42.716;23.344;2023-01-15T10:04:33;34.40;;;28.92;;
64667;SDS011;51077;42.716;23.344;2023-01-15T10:07:07;36.05;;;30.23;;
64667;SDS011;51077;42.716;23.344;2023-01-15T10:09:35;35.85;;;28.73;;
64667;SDS011;51077;42.716;23.344;2023-01-15T10:12:18;30.88;;;27.60;;
64667;SDS011;51077;42.716;23.344;2023-01-15T10:17:54;27.08;;;24.27;;
64667;SDS011;51077;42.716;23.344;2023-01-15T10:25:50;26.13;;;21.20;;
64667;SDS011;51077;42.716;23.344;2023-01-15T10:28:24;22.88;;;20.50;;
64667;SDS011;51077;42.716;23.344;2023-01-15T10:30:54;21.98;;;19.20;;
64667;SDS011;51077;42.716;23.344;2023-01-15T10:36:09;27.63;;;17.67;;
64667;SDS011;51077;42.716;23.344;2023-01-15T10:41:44;69.85;;;23.90;;
64667;SDS011;51077;42.716;23.344;2023-01-15T10:47:20;260.77;;;55.88;;
64667;SDS011;51077;42.716;23.344;2023-01-15T10:49:50;168.32;;;39.88;;
64667;SDS011;51077;42.716;23.344;2023-01-15T10:52:24;146.00;;;35.13;;
64667;SDS011;51077;42.716;23.344;2023-01-15T10:55:03;128.75;;;33.78;;
64667;SDS011;51077;42.716;23.344;2023-01-15T10:57:56;88.70;;;26.50;;
64667;SDS011;51077;42.716;23.344;2023-01-15T11:00:38;90.90;;;27.40;;
64667;SDS011;51077;42.716;23.344;2023-01-15T11:03:15;68.35;;;22.25;;
64667;SDS011;51077;42.716;23.344;2023-01-15T11:05:46;53.30;;;20.35;;
64667;SDS011;51077;42.716;23.344;2023-01-15T11:08:24;55.33;;;20.27;;
64667;SDS011;51077;42.716;23.344;2023-01-15T11:10:55;51.28;;;17.15;;
64667;SDS011;51077;42.716;23.344;2023-01-15T11:13:23;38.65;;;15.18;;
64667;SDS011;51077;42.716;23.344;2023-01-15T11:16:13;41.10;;;14.02;;
64667;SDS011;51077;42.716;23.344;2023-01-15T11:19:05;31.88;;;13.38;;
64667;SDS011;51077;42.716;23.344;2023-01-15T11:21:57;27.70;;;13.18;;
64667;SDS011;51077;42.716;23.344;2023-01-15T11:24:24;21.13;;;11.73;;
64667;SDS011;51077;42.716;23.344;2023-01-15T11:26:51;19.07;;;10.47;;
64667;SDS011;51077;42.716;23.344;2023-01-15T11:29:40;21.10;;;11.40;;
64667;SDS011;51077;42.716;23.344;2023-01-15T11:32:15;22.90;;;10.63;;
64667;SDS011;51077;42.716;23.344;2023-01-15T11:34:53;17.48;;;9.90;;
64667;SDS011;51077;42.716;23.344;2023-01-15T11:37:19;16.70;;;10.10;;
64667;SDS011;51077;42.716;23.344;2023-01-15T11:39:51;14.23;;;8.70;;
64667;SDS011;51077;42.716;23.344;2023-01-15T11:42:32;14.02;;;9.25;;
64667;SDS011;51077;42.716;23.344;2023-01-15T11:45:19;15.40;;;10.30;;
64667;SDS011;51077;42.716;23.344;2023-01-15T11:48:21;14.82;;;10.23;;
64667;SDS011;51077;42.716;23.344;2023-01-15T11:51:10;12.63;;;9.43;;
64667;SDS011;51077;42.716;23.344;2023-01-15T11:53:52;14.00;;;10.32;;
64667;SDS011;51077;42.716;23.344;2023-01-15T11:56:21;11.63;;;9.90;;
64667;SDS011;51077;42.716;23.344;2023-01-15T11:59:12;13.07;;;11.52;;
64667;SDS011;51077;42.716;23.344;2023-01-15T12:01:52;12.60;;;11.20;;
64667;SDS011;51077;42.716;23.344;2023-01-15T12:06:56;13.77;;;12.38;;
64667;SDS011;51077;42.716;23.344;2023-01-15T12:17:50;12.27;;;10.25;;
64667;SDS011;51077;42.716;23.344;2023-01-15T12:28:46;11.20;;;8.27;;
64667;SDS011;51077;42.716;23.344;2023-01-15T12:31:40;8.75;;;7.25;;
64667;SDS011;51077;42.716;23.344;2023-01-15T12:39:21;7.68;;;6.47;;
64667;SDS011;51077;42.716;23.344;2023-01-15T12:41:59;7.38;;;6.25;;
64667;SDS011;51077;42.716;23.344;2023-01-15T12:50:03;8.13;;;6.00;;
64667;SDS011;51077;42.716;23.344;2023-01-15T12:52:40;7.57;;;6.38;;
64667;SDS011;51077;42.716;23.344;2023-01-15T12:55:18;8.45;;;5.70;;
64667;SDS011;51077;42.716;23.344;2023-01-15T12:57:47;9.93;;;6.10;;
64667;SDS011;51077;42.716;23.344;2023-01-15T13:00:17;7.25;;;5.80;;
64667;SDS011;51077;42.716;23.344;2023-01-15T13:06:00;7.18;;;5.45;;
64667;SDS011;51077;42.716;23.344;2023-01-15T13:08:32;8.60;;;5.45;;
64667;SDS011;51077;42.716;23.344;2023-01-15T13:11:03;7.10;;;5.13;;
64667;SDS011;51077;42.716;23.344;2023-01-15T13:13:36;7.73;;;5.57;;
64667;SDS011;51077;42.716;23.344;2023-01-15T13:21:23;6.72;;;5.20;;
64667;SDS011;51077;42.716;23.344;2023-01-15T13:34:44;9.55;;;6.65;;
64667;SDS011;51077;42.716;23.344;2023-01-15T13:39:48;9.73;;;6.75;;
64667;SDS011;51077;42.716;23.344;2023-01-15T13:42:20;10.07;;;6.65;;
64667;SDS011;51077;42.716;23.344;2023-01-15T13:45:07;9.82;;;6.63;;
64667;SDS011;51077;42.716;23.344;2023-01-15T13:48:22;10.43;;;7.32;;
64667;SDS011;51077;42.716;23.344;2023-01-15T13:51:02;9.35;;;6.47;;
64667;SDS011;51077;42.716;23.344;2023-01-15T13:56:09;11.25;;;7.20;;
64667;SDS011;51077;42.716;23.344;2023-01-15T13:58:39;9.30;;;6.75;;
64667;SDS011;51077;42.716;23.344;2023-01-15T14:27:44;8.68;;;5.72;;
64667;SDS011;51077;42.716;23.344;2023-01-15T14:35:55;10.35;;;6.75;;
64667;SDS011;51077;42.716;23.344;2023-01-15T14:38:22;8.90;;;6.60;;
64667;SDS011;51077;42.716;23.344;2023-01-15T14:40:57;10.45;;;7.45;;
64667;SDS011;51077;42.716;23.344;2023-01-15T14:43:28;10.27;;;7.57;;
64667;SDS011;51077;42.716;23.344;2023-01-15T14:45:57;11.98;;;7.60;;
64667;SDS011;51077;42.716;23.344;2023-01-15T14:48:44;11.10;;;8.48;;
64667;SDS011;51077;42.716;23.344;2023-01-15T14:51:14;10.17;;;7.87;;
64667;SDS011;51077;42.716;23.344;2023-01-15T14:53:47;12.75;;;8.57;;
64667;SDS011;51077;42.716;23.344;2023-01-15T14:59:09;12.00;;;7.65;;
64667;SDS011;51077;42.716;23.344;2023-01-15T15:01:49;15.73;;;9.23;;
64667;SDS011;51077;42.716;23.344;2023-01-15T15:15:36;14.35;;;9.48;;
64667;SDS011;51077;42.716;23.344;2023-01-15T15:18:33;14.43;;;9.48;;
64667;SDS011;51077;42.716;23.344;2023-01-15T15:21:12;16.05;;;10.27;;
64667;SDS011;51077;42.716;23.344;2023-01-15T15:24:06;14.45;;;10.40;;
64667;SDS011;51077;42.716;23.344;2023-01-15T15:26:40;16.45;;;10.70;;
64667;SDS011;51077;42.716;23.344;2023-01-15T15:31:35;16.83;;;10.70;;
64667;SDS011;51077;42.716;23.344;2023-01-15T15:34:06;17.50;;;11.45;;
64667;SDS011;51077;42.716;23.344;2023-01-15T15:36:56;17.67;;;11.52;;
64667;SDS011;51077;42.716;23.344;2023-01-15T15:39:25;16.63;;;11.05;;
64667;SDS011;51077;42.716;23.344;2023-01-15T15:41:58;15.20;;;11.32;;
64667;SDS011;51077;42.716;23.344;2023-01-15T15:47:38;17.75;;;10.85;;
64667;SDS011;51077;42.716;23.344;2023-01-15T15:50:25;18.00;;;11.80;;
64667;SDS011;51077;42.716;23.344;2023-01-15T15:52:55;16.65;;;11.68;;
64667;SDS011;51077;42.716;23.344;2023-01-15T15:55:38;17.58;;;11.73;;
64667;SDS011;51077;42.716;23.344;2023-01-15T15:58:06;18.77;;;12.35;;
64667;SDS011;51077;42.716;23.344;2023-01-15T16:00:40;19.42;;;12.18;;
64667;SDS011;51077;42.716;23.344;2023-01-15T16:03:14;19.08;;;12.13;;
64667;SDS011;51077;42.716;23.344;2023-01-15T16:05:53;18.77;;;12.18;;
64667;SDS011;51077;42.716;23.344;2023-01-15T16:08:20;17.92;;;11.90;;
64667;SDS011;51077;42.716;23.344;2023-01-15T16:10:46;19.47;;;12.27;;
64667;SDS011;51077;42.716;23.344;2023-01-15T16:13:21;19.92;;;12.13;;
64667;SDS011;51077;42.716;23.344;2023-01-15T16:15:52;19.48;;;11.68;;
64667;SDS011;51077;42.716;23.344;2023-01-15T16:18:25;19.15;;;11.40;;
64667;SDS011;51077;42.716;23.344;2023-01-15T16:20:53;19.58;;;12.82;;
64667;SDS011;51077;42.716;23.344;2023-01-15T16:23:21;20.92;;;13.38;;
64667;SDS011;51077;42.716;23.344;2023-01-15T16:26:22;23.00;;;13.63;;
64667;SDS011;51077;42.716;23.344;2023-01-15T16:28:50;22.30;;;13.18;;
64667;SDS011;51077;42.716;23.344;2023-01-15T16:31:19;20.55;;;14.25;;
64667;SDS011;51077;42.716;23.344;2023-01-15T16:33:46;19.70;;;13.30;;
64667;SDS011;51077;42.716;23.344;2023-01-15T16:36:17;22.23;;;13.70;;
64667;SDS011;51077;42.716;23.344;2023-01-15T16:38:45;19.52;;;14.00;;
64667;SDS011;51077;42.716;23.344;2023-01-15T16:41:15;21.42;;;13.02;;
64667;SDS011;51077;42.716;23.344;2023-01-15T16:43:52;21.80;;;13.70;;
64667;SDS011;51077;42.716;23.344;2023-01-15T16:46:20;20.60;;;12.98;;
64667;SDS011;51077;42.716;23.344;2023-01-15T16:48:49;20.98;;;14.30;;
64667;SDS011;51077;42.716;23.344;2023-01-15T16:51:44;19.70;;;13.15;;
64667;SDS011;51077;42.716;23.344;2023-01-15T16:57:04;18.35;;;12.80;;
64667;SDS011;51077;42.716;23.344;2023-01-15T16:59:55;17.70;;;12.05;;
64667;SDS011;51077;42.716;23.344;2023-01-15T17:02:23;18.83;;;12.82;;
64667;SDS011;51077;42.716;23.344;2023-01-15T17:04:53;20.45;;;13.27;;
64667;SDS011;51077;42.716;23.344;2023-01-15T17:07:22;19.97;;;12.77;;
64667;SDS011;51077;42.716;23.344;2023-01-15T17:09:59;21.70;;;13.93;;
64667;SDS011;51077;42.716;23.344;2023-01-15T17:17:43;18.92;;;12.63;;
64667;SDS011;51077;42.716;23.344;2023-01-15T17:20:11;18.48;;;12.40;;
64667;SDS011;51077;42.716;23.344;2023-01-15T17:22:38;18.67;;;12.80;;
64667;SDS011;51077;42.716;23.344;2023-01-15T17:25:19;18.30;;;12.70;;
64667;SDS011;51077;42.716;23.344;2023-01-15T17:27:55;20.50;;;12.23;;
64667;SDS011;51077;42.716;23.344;2023-01-15T17:30:21;19.52;;;12.80;;
64667;SDS011;51077;42.716;23.344;2023-01-15T17:32:54;19.05;;;12.52;;
64667;SDS011;51077;42.716;23.344;2023-01-15T17:37:47;19.48;;;12.63;;
64667;SDS011;51077;42.716;23.344;2023-01-15T17:40:13;21.23;;;12.93;;
64667;SDS011;51077;42.716;23.344;2023-01-15T17:42:38;22.48;;;13.40;;